createdAt,value
2023-02-16T00:00:51.318Z,83.40
2023-02-16T00:03:40.210Z,66.40
2023-02-16T00:06:14.675Z,72.60
2023-02-16T00:08:44.591Z,83.50
2023-02-16T00:11:44.024Z,82.70
2023-02-16T00:14:19.696Z,98.00
2023-02-16T00:16:52.158Z,82.30
2023-02-16T00:19:25.130Z,90.40
2023-02-16T00:21:59.020Z,75.10
2023-02-16T00:24:31.020Z,70.20
2023-02-16T00:27:00.422Z,76.50
2023-02-16T00:29:37.453Z,67.40
2023-02-16T00:32:13.475Z,76.50
2023-02-16T00:34:45.914Z,69.30
2023-02-16T00:37:19.351Z,66.70
2023-02-16T00:39:53.471Z,64.10
2023-02-16T00:42:29.322Z,64.20
2023-02-16T00:44:59.053Z,53.60
2023-02-16T00:47:36.969Z,50.30
2023-02-16T00:50:34.848Z,56.50
2023-02-16T00:53:06.384Z,74.80
2023-02-16T00:55:42.299Z,68.40
2023-02-16T00:58:25.862Z,65.90
2023-02-16T01:01:03.440Z,69.10
2023-02-16T01:03:40.472Z,71.70
2023-02-16T01:06:34.376Z,68.30
2023-02-16T01:09:38.371Z,66.50
2023-02-16T01:12:20.044Z,76.30
2023-02-16T01:15:00.561Z,69.60
2023-02-16T01:17:33.932Z,69.00
2023-02-16T01:20:21.115Z,65.70
2023-02-16T01:22:58.382Z,66.10
2023-02-16T01:25:35.440Z,70.60
2023-02-16T01:28:21.705Z,65.50
2023-02-16T01:31:01.636Z,73.30
2023-02-16T01:33:40.334Z,71.10
2023-02-16T01:36:36.387Z,72.50
2023-02-16T01:39:11.247Z,64.90
2023-02-16T01:41:51.294Z,71.00
2023-02-16T01:44:27.792Z,71.10
2023-02-16T01:47:19.701Z,76.00
2023-02-16T01:49:56.954Z,71.70
2023-02-16T01:52:40.544Z,68.60
2023-02-16T01:55:30.279Z,62.70
2023-02-16T01:58:11.823Z,57.10
2023-02-16T02:01:38.595Z,68.80
2023-02-16T02:05:02.988Z,63.00
2023-02-16T02:07:52.462Z,60.80
2023-02-16T02:10:46.948Z,64.40
2023-02-16T02:13:59.013Z,70.00
2023-02-16T02:16:32.560Z,61.50
2023-02-16T02:19:11.449Z,62.10
2023-02-16T02:22:52.245Z,63.00
2023-02-16T02:26:27.995Z,64.60
2023-02-16T02:30:08.763Z,56.80
2023-02-16T02:33:35.845Z,45.00
2023-02-16T02:36:34.597Z,53.10
2023-02-16T02:39:26.269Z,53.40
2023-02-16T02:42:22.377Z,50.30
2023-02-16T02:45:19.691Z,54.30
2023-02-16T02:51:04.023Z,49.30
2023-02-16T02:54:05.890Z,44.30
2023-02-16T02:57:08.492Z,52.10
2023-02-16T03:00:01.349Z,55.30
2023-02-16T03:02:35.585Z,48.70
2023-02-16T03:05:08.309Z,45.90
2023-02-16T03:07:50.891Z,56.60
2023-02-16T03:10:48.103Z,50.20
2023-02-16T03:13:29.657Z,49.10
2023-02-16T03:15:59.611Z,58.20
2023-02-16T03:18:48.124Z,53.70
2023-02-16T03:21:35.232Z,69.00
2023-02-16T03:24:26.354Z,56.20
2023-02-16T03:27:19.276Z,68.30
2023-02-16T03:29:55.066Z,59.70
2023-02-16T03:32:24.126Z,56.30
2023-02-16T03:34:53.145Z,63.70
2023-02-16T03:37:24.791Z,76.10
2023-02-16T03:40:14.636Z,57.20
2023-02-16T03:42:58.798Z,54.30
2023-02-16T03:45:31.504Z,48.90
2023-02-16T03:48:00.062Z,57.30
2023-02-16T03:50:31.158Z,47.60
2023-02-16T03:53:11.049Z,46.50
2023-02-16T03:55:48.818Z,52.40
2023-02-16T03:58:20.404Z,48.60
2023-02-16T04:00:50.200Z,48.80
2023-02-16T04:03:18.830Z,53.00
2023-02-16T04:05:47.540Z,50.50
2023-02-16T04:08:18.772Z,52.50
2023-02-16T04:10:47.762Z,52.70
2023-02-16T04:13:16.780Z,58.60
2023-02-16T04:15:45.675Z,54.80
2023-02-16T04:18:14.234Z,54.00
2023-02-16T04:20:43.044Z,52.50
2023-02-16T04:23:12.482Z,56.60
2023-02-16T04:25:49.931Z,56.50
2023-02-16T04:28:18.469Z,61.90
2023-02-16T04:30:52.735Z,60.40
2023-02-16T04:33:21.376Z,61.30
2023-02-16T04:35:52.273Z,55.00
2023-02-16T04:38:24.379Z,65.40
2023-02-16T04:40:55.476Z,56.40
2023-02-16T04:43:26.692Z,69.20
2023-02-16T04:46:00.749Z,60.00
2023-02-16T04:48:31.957Z,56.60
2023-02-16T04:51:00.636Z,63.80
2023-02-16T04:53:35.620Z,63.40
2023-02-16T04:56:04.769Z,65.20
2023-02-16T04:58:35.658Z,81.30
2023-02-16T05:01:06.715Z,112.30
2023-02-16T05:03:36.065Z,113.10
2023-02-16T05:06:07.552Z,89.70
2023-02-16T05:08:40.294Z,87.50
2023-02-16T05:11:27.676Z,83.10
2023-02-16T05:14:20.310Z,85.30
2023-02-16T05:16:52.434Z,80.80
2023-02-16T05:19:24.428Z,80.30
2023-02-16T05:21:57.853Z,84.10
2023-02-16T05:24:34.717Z,83.20
2023-02-16T05:27:08.708Z,93.50
2023-02-16T05:29:43.652Z,71.90
2023-02-16T05:32:16.443Z,63.60
2023-02-16T05:34:48.027Z,60.30
2023-02-16T05:37:22.153Z,61.50
2023-02-16T05:39:53.534Z,53.10
2023-02-16T05:42:22.259Z,65.10
2023-02-16T05:44:56.675Z,49.30
2023-02-16T05:47:31.114Z,55.70
2023-02-16T05:50:04.630Z,55.40
2023-02-16T05:52:49.164Z,44.50
2023-02-16T05:55:23.435Z,45.20
2023-02-16T05:58:02.663Z,51.10
2023-02-16T06:00:38.488Z,60.30
2023-02-16T06:03:11.842Z,64.40
2023-02-16T06:06:03.099Z,50.00
2023-02-16T06:11:25.646Z,54.90
2023-02-16T06:14:07.750Z,51.50
2023-02-16T06:16:45.744Z,54.10
2023-02-16T06:19:25.198Z,45.10
2023-02-16T06:22:15.046Z,48.00
2023-02-16T06:24:46.005Z,62.50
2023-02-16T06:27:23.163Z,55.80
2023-02-16T06:29:51.474Z,54.40
2023-02-16T06:32:24.514Z,61.80
2023-02-16T06:35:05.212Z,59.80
2023-02-16T06:37:51.468Z,48.40
2023-02-16T06:40:41.049Z,84.90
2023-02-16T06:43:26.153Z,75.30
2023-02-16T06:46:14.589Z,99.90
2023-02-16T06:48:52.562Z,98.40
2023-02-16T06:51:32.192Z,72.70
2023-02-16T06:54:06.656Z,76.80
2023-02-16T06:56:46.220Z,111.60
2023-02-16T06:59:30.980Z,93.20
2023-02-16T07:02:09.266Z,67.50
2023-02-16T07:04:43.727Z,77.00
2023-02-16T07:07:22.298Z,63.30
2023-02-16T07:10:01.416Z,79.10
2023-02-16T07:12:42.254Z,58.80
2023-02-16T07:15:21.775Z,83.60
2023-02-16T07:18:06.061Z,66.00
2023-02-16T07:23:24.905Z,67.60
2023-02-16T07:26:06.397Z,62.50
2023-02-16T07:28:38.176Z,61.50
2023-02-16T07:31:24.601Z,68.70
2023-02-16T07:34:01.542Z,58.40
2023-02-16T07:36:33.267Z,58.60
2023-02-16T07:39:12.864Z,61.00
2023-02-16T07:41:45.699Z,67.00
2023-02-16T07:44:29.699Z,85.30
2023-02-16T07:47:07.996Z,78.90
2023-02-16T07:49:39.617Z,64.10
2023-02-16T07:52:13.170Z,73.80
2023-02-16T07:54:46.613Z,59.80
2023-02-16T07:57:26.437Z,60.80
2023-02-16T08:00:00.519Z,55.00
2023-02-16T08:02:31.649Z,56.20
2023-02-16T08:05:06.076Z,52.80
2023-02-16T08:07:41.878Z,54.00
2023-02-16T08:10:17.068Z,52.60
2023-02-16T08:12:49.909Z,67.00
2023-02-16T08:15:28.564Z,73.80
2023-02-16T08:18:06.030Z,60.10
2023-02-16T08:20:57.711Z,58.40
2023-02-16T08:23:28.888Z,98.30
2023-02-16T08:26:09.948Z,159.40
2023-02-16T08:28:46.196Z,93.50
2023-02-16T08:31:25.028Z,73.90
2023-02-16T08:34:03.596Z,59.90
2023-02-16T08:36:38.647Z,65.90
2023-02-16T08:39:15.953Z,106.90
2023-02-16T08:41:55.158Z,141.70
2023-02-16T08:44:30.326Z,81.30
2023-02-16T08:47:07.765Z,97.30
2023-02-16T08:49:44.299Z,63.70
2023-02-16T08:52:20.929Z,54.90
2023-02-16T08:54:53.048Z,63.10
2023-02-16T08:57:29.015Z,65.70
2023-02-16T09:00:20.774Z,59.30
2023-02-16T09:02:51.849Z,61.80
2023-02-16T09:05:28.435Z,75.40
2023-02-16T09:07:59.866Z,73.60
2023-02-16T09:10:30.613Z,68.80
2023-02-16T09:13:08.866Z,63.70
2023-02-16T09:15:40.760Z,62.00
2023-02-16T09:18:15.103Z,73.20
2023-02-16T09:20:54.284Z,58.80
2023-02-16T09:23:26.065Z,69.00
2023-02-16T09:25:56.807Z,59.50
2023-02-16T09:28:31.304Z,60.90
2023-02-16T09:31:08.569Z,65.80
2023-02-16T09:33:48.081Z,65.00
2023-02-16T09:36:30.537Z,98.60
2023-02-16T09:39:09.942Z,79.20
2023-02-16T09:42:15.934Z,84.80
2023-02-16T09:45:14.696Z,73.30
2023-02-16T09:48:00.103Z,78.20
2023-02-16T09:50:53.977Z,78.50
2023-02-16T09:53:46.819Z,77.70
2023-02-16T09:56:55.565Z,68.30
2023-02-16T09:59:53.348Z,65.40
2023-02-16T10:03:00.803Z,58.80
2023-02-16T10:06:13.968Z,64.30
2023-02-16T10:09:00.586Z,63.40
2023-02-16T10:12:06.967Z,53.10
2023-02-16T10:14:53.359Z,69.80
2023-02-16T10:17:44.912Z,63.30
2023-02-16T10:20:30.479Z,77.30
2023-02-16T10:23:57.696Z,71.70
2023-02-16T10:26:51.729Z,67.00
2023-02-16T10:29:40.690Z,66.10
2023-02-16T10:32:51.202Z,72.20
2023-02-16T10:36:30.978Z,61.30
2023-02-16T10:40:10.267Z,56.80
2023-02-16T10:43:55.568Z,61.30
2023-02-16T10:47:24.995Z,58.60
2023-02-16T10:50:59.065Z,66.80
2023-02-16T10:53:58.954Z,60.70
2023-02-16T10:57:08.912Z,62.70
2023-02-16T10:59:56.525Z,56.70
2023-02-16T11:03:02.357Z,62.90
2023-02-16T11:05:51.754Z,59.80
2023-02-16T11:08:49.860Z,51.40
2023-02-16T11:11:44.570Z,49.30
2023-02-16T11:14:30.373Z,57.50
2023-02-16T11:17:14.002Z,58.10
2023-02-16T11:20:05.630Z,52.90
2023-02-16T11:22:41.597Z,54.60
2023-02-16T11:25:33.626Z,50.20
2023-02-16T11:28:11.713Z,46.90
2023-02-16T11:30:43.604Z,58.70
2023-02-16T11:33:28.824Z,63.60
2023-02-16T11:36:05.438Z,52.90
2023-02-16T11:38:37.598Z,57.50
2023-02-16T11:41:07.485Z,54.00
2023-02-16T11:43:42.682Z,61.50
2023-02-16T11:46:20.571Z,59.60
2023-02-16T11:48:52.179Z,52.30
2023-02-16T11:51:36.161Z,55.10
2023-02-16T11:54:09.279Z,55.70
2023-02-16T11:56:40.945Z,57.40
2023-02-16T11:59:21.837Z,58.70
2023-02-16T12:02:05.677Z,52.30
2023-02-16T12:05:27.591Z,54.60
2023-02-16T12:08:26.635Z,57.50
2023-02-16T12:11:28.219Z,55.60
2023-02-16T12:14:27.471Z,51.30
2023-02-16T12:17:27.877Z,53.90
2023-02-16T12:20:21.235Z,59.00
2023-02-16T12:23:25.340Z,53.20
2023-02-16T12:26:26.815Z,52.40
2023-02-16T12:29:34.023Z,53.10
2023-02-16T12:32:34.686Z,50.60
2023-02-16T12:35:18.049Z,45.60
2023-02-16T12:38:04.698Z,50.70
2023-02-16T12:41:43.659Z,52.40
2023-02-16T12:44:42.769Z,46.70
2023-02-16T12:47:29.955Z,46.60
2023-02-16T12:50:17.369Z,44.90
2023-02-16T12:53:34.359Z,51.40
2023-02-16T12:56:17.005Z,43.00
2023-02-16T12:58:57.567Z,42.10
2023-02-16T13:01:34.518Z,41.50
2023-02-16T13:04:59.327Z,46.50
2023-02-16T13:07:46.709Z,46.80
2023-02-16T13:10:57.756Z,38.50
2023-02-16T13:13:34.744Z,38.10
2023-02-16T13:16:55.066Z,42.50
2023-02-16T13:19:35.277Z,43.20
2023-02-16T13:22:40.062Z,46.70
2023-02-16T13:25:52.469Z,46.30
2023-02-16T13:28:51.632Z,46.00
2023-02-16T13:31:40.429Z,46.20
2023-02-16T13:34:52.546Z,46.20
2023-02-16T13:38:09.812Z,60.20
2023-02-16T13:40:52.038Z,46.90
2023-02-16T13:44:05.082Z,44.40
2023-02-16T13:46:57.660Z,42.30
2023-02-16T13:49:46.506Z,43.80
2023-02-16T13:52:48.731Z,46.10
2023-02-16T13:55:49.248Z,48.60
2023-02-16T13:58:35.946Z,46.60
2023-02-16T14:01:43.309Z,44.90
2023-02-16T14:05:13.692Z,43.50
2023-02-16T14:08:34.114Z,44.50
2023-02-16T14:11:12.543Z,46.60
2023-02-16T14:13:56.155Z,42.20
2023-02-16T14:16:37.953Z,42.90
2023-02-16T14:19:34.940Z,45.10
2023-02-16T14:22:28.204Z,47.20
2023-02-16T14:25:44.558Z,42.70
2023-02-16T14:28:57.686Z,51.10
2023-02-16T14:31:54.501Z,42.20
2023-02-16T14:34:52.035Z,48.90
2023-02-16T14:38:20.325Z,44.90
2023-02-16T14:41:17.460Z,44.80
2023-02-16T14:44:31.708Z,52.50
2023-02-16T14:48:02.226Z,42.90
2023-02-16T14:51:38.574Z,52.00
2023-02-16T14:54:40.742Z,46.60
2023-02-16T14:57:41.392Z,42.80
2023-02-16T15:00:24.989Z,49.80
2023-02-16T15:03:05.858Z,53.80
2023-02-16T15:05:40.884Z,48.90
2023-02-16T15:08:40.738Z,49.70
2023-02-16T15:11:21.195Z,52.70
2023-02-16T15:13:54.419Z,50.80
2023-02-16T15:16:23.742Z,48.20
2023-02-16T15:18:56.176Z,50.30
2023-02-16T15:21:30.847Z,53.00
2023-02-16T15:24:02.316Z,54.70
2023-02-16T15:26:38.761Z,50.40
2023-02-16T15:29:31.597Z,51.60
2023-02-16T15:32:07.247Z,45.80
2023-02-16T15:34:41.246Z,66.30
2023-02-16T15:37:37.977Z,54.00
2023-02-16T15:40:30.530Z,56.10
2023-02-16T15:43:46.369Z,58.20
2023-02-16T15:46:42.234Z,62.70
2023-02-16T15:49:31.078Z,105.40
2023-02-16T15:52:01.236Z,71.00
2023-02-16T15:54:35.696Z,69.90
2023-02-16T15:57:30.928Z,62.00
2023-02-16T16:00:19.717Z,58.60
2023-02-16T16:02:54.859Z,59.10
2023-02-16T16:05:37.036Z,64.80
2023-02-16T16:08:17.598Z,58.80
2023-02-16T16:10:48.643Z,68.40
2023-02-16T16:13:37.221Z,67.30
2023-02-16T16:16:15.129Z,57.50
2023-02-16T16:18:49.266Z,73.00
2023-02-16T16:21:26.164Z,80.10
2023-02-16T16:24:01.588Z,69.60
2023-02-16T16:26:36.342Z,69.10
2023-02-16T16:29:50.434Z,61.40
2023-02-16T16:32:27.811Z,82.00
2023-02-16T16:34:59.296Z,74.00
2023-02-16T16:37:35.780Z,62.30
2023-02-16T16:40:36.235Z,64.50
2023-02-16T16:43:22.858Z,76.30
2023-02-16T16:46:30.381Z,63.80
2023-02-16T16:49:08.132Z,64.10
2023-02-16T16:51:53.904Z,61.10
2023-02-16T16:54:42.935Z,75.00
2023-02-16T16:57:21.013Z,114.60
2023-02-16T16:59:54.265Z,119.50
2023-02-16T17:02:26.140Z,114.30
2023-02-16T17:04:57.131Z,121.60
2023-02-16T17:07:29.113Z,107.30
2023-02-16T17:10:00.996Z,99.10
2023-02-16T17:12:32.546Z,95.20
2023-02-16T17:15:07.939Z,96.80
2023-02-16T17:17:38.617Z,83.10
2023-02-16T17:20:19.072Z,95.40
2023-02-16T17:22:58.480Z,91.70
2023-02-16T17:25:34.894Z,72.40
2023-02-16T17:28:10.223Z,86.70
2023-02-16T17:30:42.236Z,80.90
2023-02-16T17:33:18.958Z,86.80
2023-02-16T17:35:47.971Z,84.20
2023-02-16T17:38:26.114Z,78.00
2023-02-16T17:41:00.373Z,75.10
2023-02-16T17:43:34.764Z,94.40
2023-02-16T17:46:13.406Z,77.60
2023-02-16T17:48:52.846Z,73.90
2023-02-16T17:51:26.995Z,76.70
2023-02-16T17:54:06.595Z,77.10
2023-02-16T17:56:42.946Z,75.80
2023-02-16T17:59:33.216Z,78.70
2023-02-16T18:02:21.070Z,79.20
2023-02-16T18:05:00.561Z,74.50
2023-02-16T18:07:41.898Z,75.40
2023-02-16T18:10:34.538Z,75.00
2023-02-16T18:13:07.152Z,68.80
2023-02-16T18:18:23.639Z,68.20
2023-02-16T18:21:21.726Z,74.50
2023-02-16T18:24:06.566Z,79.90
2023-02-16T18:26:47.524Z,77.90
2023-02-16T18:29:33.941Z,71.50
2023-02-16T18:32:19.104Z,71.10
2023-02-16T18:35:07.752Z,75.80
2023-02-16T18:37:55.001Z,93.80
2023-02-16T18:40:41.303Z,89.40
2023-02-16T18:43:27.998Z,95.80
2023-02-16T18:46:14.738Z,95.40
2023-02-16T18:49:01.255Z,90.40
2023-02-16T18:51:49.541Z,81.90
2023-02-16T18:54:32.903Z,86.50
2023-02-16T18:57:16.241Z,96.20
2023-02-16T19:00:01.344Z,86.80
2023-02-16T19:02:32.533Z,97.40
2023-02-16T19:05:19.449Z,94.50
2023-02-16T19:08:08.195Z,89.70
2023-02-16T19:10:56.045Z,101.30
2023-02-16T19:13:32.988Z,98.40
2023-02-16T19:16:14.351Z,108.80
2023-02-16T19:18:55.967Z,114.50
2023-02-16T19:21:34.353Z,99.30
2023-02-16T19:24:13.804Z,96.10
2023-02-16T19:26:42.088Z,94.20
2023-02-16T19:29:18.645Z,83.00
2023-02-16T19:31:55.342Z,93.30
2023-02-16T19:34:32.443Z,83.10
2023-02-16T19:37:04.208Z,94.30
2023-02-16T19:39:36.572Z,102.20
2023-02-16T19:42:09.869Z,112.00
2023-02-16T19:44:42.319Z,111.10
2023-02-16T19:47:13.659Z,85.50
2023-02-16T19:49:45.707Z,97.30
2023-02-16T19:52:20.568Z,85.00
2023-02-16T19:54:49.631Z,99.70
2023-02-16T19:57:21.568Z,90.60
2023-02-16T19:59:53.416Z,82.70
2023-02-16T20:02:24.927Z,102.30
2023-02-16T20:04:59.206Z,96.20
2023-02-16T20:07:37.078Z,94.60
2023-02-16T20:10:11.435Z,91.60
2023-02-16T20:12:43.255Z,92.90
2023-02-16T20:15:18.966Z,91.10
2023-02-16T20:17:55.911Z,87.30
2023-02-16T20:20:26.920Z,87.50
2023-02-16T20:22:58.327Z,94.00
2023-02-16T20:25:27.328Z,93.40
2023-02-16T20:28:02.937Z,79.40
2023-02-16T20:30:36.876Z,86.50
2023-02-16T20:33:14.806Z,81.80
2023-02-16T20:35:43.582Z,107.80
2023-02-16T20:38:16.191Z,101.30
2023-02-16T20:40:48.037Z,94.40
2023-02-16T20:43:21.141Z,110.40
2023-02-16T20:45:52.060Z,103.30
2023-02-16T20:48:28.258Z,93.10
2023-02-16T20:51:02.342Z,94.30
2023-02-16T20:53:33.625Z,102.70
2023-02-16T20:56:14.908Z,122.90
2023-02-16T20:58:50.503Z,116.20
2023-02-16T21:01:43.691Z,108.00
2023-02-16T21:04:22.642Z,95.90
2023-02-16T21:06:58.669Z,94.90
2023-02-16T21:09:31.998Z,124.20
2023-02-16T21:12:06.129Z,126.30
2023-02-16T21:14:34.510Z,114.30
2023-02-16T21:17:12.511Z,116.40
2023-02-16T21:19:43.487Z,135.80
2023-02-16T21:22:19.740Z,117.80
2023-02-16T21:24:51.177Z,134.10
2023-02-16T21:27:22.258Z,116.40
2023-02-16T21:29:54.085Z,113.30
2023-02-16T21:32:32.724Z,115.70
2023-02-16T21:35:07.605Z,126.20
2023-02-16T21:37:46.246Z,119.80
2023-02-16T21:40:38.876Z,108.70
2023-02-16T21:43:17.272Z,108.20
2023-02-16T21:45:53.683Z,112.50
2023-02-16T21:48:41.045Z,103.00
2023-02-16T21:51:25.111Z,99.20
2023-02-16T21:53:57.432Z,95.10
2023-02-16T21:56:34.727Z,102.90
2023-02-16T21:59:10.133Z,99.60
2023-02-16T22:01:46.657Z,106.30
2023-02-16T22:04:22.556Z,128.00
2023-02-16T22:06:55.490Z,119.90
2023-02-16T22:09:37.333Z,131.70
2023-02-16T22:12:14.328Z,119.80
2023-02-16T22:14:50.253Z,156.80
2023-02-16T22:17:29.685Z,137.00
2023-02-16T22:20:12.592Z,127.20
2023-02-16T22:22:52.465Z,115.50
2023-02-16T22:25:36.296Z,266.10
2023-02-16T22:28:11.689Z,177.90
2023-02-16T22:30:45.946Z,125.50
2023-02-16T22:33:20.225Z,109.50
2023-02-16T22:35:54.130Z,115.80
2023-02-16T22:41:13.225Z,101.00
2023-02-16T22:44:07.984Z,96.90
2023-02-16T22:46:38.956Z,87.40
2023-02-16T22:49:22.469Z,121.40
2023-02-16T22:52:00.995Z,112.00
2023-02-16T22:54:44.904Z,125.20
2023-02-16T22:57:30.676Z,103.70
2023-02-16T23:00:14.865Z,103.90
2023-02-16T23:02:52.211Z,95.00
2023-02-16T23:05:35.201Z,111.70
2023-02-16T23:08:14.848Z,103.80
2023-02-16T23:11:02.625Z,101.40
2023-02-16T23:13:45.266Z,119.70
2023-02-16T23:16:18.727Z,113.20
2023-02-16T23:18:50.387Z,124.40
2023-02-16T23:21:24.024Z,131.20
2023-02-16T23:23:54.120Z,117.80
2023-02-16T23:26:25.022Z,125.90
2023-02-16T23:29:00.407Z,119.90
2023-02-16T23:31:38.023Z,122.20
2023-02-16T23:34:11.474Z,122.30
2023-02-16T23:36:43.202Z,112.90
2023-02-16T23:39:15.253Z,117.90
2023-02-16T23:41:46.677Z,104.70
2023-02-16T23:44:18.650Z,107.10
2023-02-16T23:46:54.872Z,98.70
2023-02-16T23:49:23.472Z,108.00
2023-02-16T23:51:57.082Z,100.50
2023-02-16T23:54:25.501Z,106.20
2023-02-16T23:56:59.161Z,95.10
2023-02-16T23:59:32.418Z,99.90
